createdAt,value
2018-09-12T00:01:30.834Z,20.70
2018-09-12T00:04:04.405Z,20.90
2018-09-12T00:06:40.443Z,21.10
2018-09-12T00:09:14.577Z,20.80
2018-09-12T00:11:47.838Z,21.20
2018-09-12T00:14:21.160Z,21.50
2018-09-12T00:16:55.194Z,21.40
2018-09-12T00:19:31.551Z,21.10
2018-09-12T00:22:10.797Z,20.80
2018-09-12T00:24:44.261Z,20.70
2018-09-12T00:27:18.980Z,20.60
2018-09-12T00:29:53.482Z,20.30
2018-09-12T00:32:29.319Z,20.20
2018-09-12T00:35:04.711Z,20.60
2018-09-12T00:37:38.748Z,20.60
2018-09-12T00:40:13.089Z,20.10
2018-09-12T00:42:48.816Z,19.80
2018-09-12T00:45:22.140Z,19.50
2018-09-12T00:47:56.145Z,19.50
2018-09-12T00:50:29.641Z,19.70
2018-09-12T00:53:05.159Z,19.30
2018-09-12T00:55:38.683Z,19.20
2018-09-12T00:58:13.722Z,19.20
2018-09-12T01:00:47.517Z,19.30
2018-09-12T01:03:25.419Z,19.40
2018-09-12T01:05:59.486Z,19.40
2018-09-12T01:08:32.608Z,19.30
2018-09-12T01:11:06.475Z,19.50
2018-09-12T01:13:39.532Z,19.10
2018-09-12T01:16:19.223Z,19.10
2018-09-12T01:18:53.030Z,19.20
2018-09-12T01:21:26.877Z,19.00
2018-09-12T01:24:00.298Z,18.40
2018-09-12T01:26:33.920Z,18.50
2018-09-12T01:29:08.296Z,18.60
2018-09-12T01:31:48.099Z,18.20
2018-09-12T01:34:22.343Z,17.80
2018-09-12T01:36:57.224Z,17.60
2018-09-12T01:39:31.345Z,17.50
2018-09-12T01:42:11.740Z,17.40
2018-09-12T01:44:47.634Z,17.10
2018-09-12T01:47:23.036Z,16.90
2018-09-12T01:49:57.684Z,16.80
2018-09-12T01:52:31.303Z,16.70
2018-09-12T01:55:05.767Z,16.60
2018-09-12T01:57:39.883Z,16.50
2018-09-12T02:00:22.965Z,16.50
2018-09-12T02:03:13.120Z,16.30
2018-09-12T02:05:46.922Z,16.20
2018-09-12T02:08:21.616Z,16.20
2018-09-12T02:10:56.656Z,16.10
2018-09-12T02:13:34.150Z,16.10
2018-09-12T02:16:13.926Z,16.00
2018-09-12T02:18:59.345Z,15.90
2018-09-12T02:21:33.131Z,15.90
2018-09-12T02:24:07.066Z,15.80
2018-09-12T02:26:41.581Z,15.80
2018-09-12T02:29:20.466Z,15.70
2018-09-12T02:31:53.834Z,15.70
2018-09-12T02:34:28.230Z,15.60
2018-09-12T02:37:03.704Z,15.60
2018-09-12T02:39:37.243Z,15.50
2018-09-12T02:42:11.738Z,15.50
2018-09-12T02:44:47.362Z,15.40
2018-09-12T02:47:26.972Z,15.40
2018-09-12T02:50:01.118Z,15.40
2018-09-12T02:52:35.652Z,15.30
2018-09-12T02:55:09.688Z,15.30
2018-09-12T02:57:43.840Z,15.30
2018-09-12T03:00:17.275Z,15.20
2018-09-12T03:02:55.376Z,15.10
2018-09-12T03:05:32.582Z,15.10
2018-09-12T03:08:15.557Z,15.10
2018-09-12T03:10:49.815Z,15.10
2018-09-12T03:13:37.004Z,15.00
2018-09-12T03:16:13.894Z,15.10
2018-09-12T03:18:50.424Z,15.00
2018-09-12T03:21:23.851Z,14.90
2018-09-12T03:23:57.662Z,14.90
2018-09-12T03:26:31.508Z,14.90
2018-09-12T03:29:06.464Z,14.80
2018-09-12T03:31:40.428Z,14.90
2018-09-12T03:34:14.209Z,14.90
2018-09-12T03:36:49.196Z,14.90
2018-09-12T03:39:25.648Z,14.90
2018-09-12T03:41:59.478Z,14.90
2018-09-12T03:44:32.963Z,14.90
2018-09-12T03:47:12.147Z,14.90
2018-09-12T03:49:55.782Z,14.90
2018-09-12T03:52:32.033Z,15.00
2018-09-12T03:55:05.868Z,15.00
2018-09-12T04:00:19.021Z,15.10
2018-09-12T04:02:54.636Z,15.00
2018-09-12T04:05:28.938Z,15.10
2018-09-12T04:09:07.701Z,15.00
2018-09-12T04:11:43.317Z,14.90
2018-09-12T04:14:19.693Z,14.90
2018-09-12T04:16:53.431Z,14.90
2018-09-12T04:22:40.052Z,14.90
2018-09-12T04:25:22.554Z,14.80
2018-09-12T04:27:56.619Z,14.70
2018-09-12T04:30:30.885Z,14.70
2018-09-12T04:33:06.594Z,14.70
2018-09-12T04:35:42.614Z,14.70
2018-09-12T04:38:19.577Z,14.70
2018-09-12T04:40:57.491Z,14.50
2018-09-12T04:43:31.308Z,14.50
2018-09-12T04:46:09.698Z,14.40
2018-09-12T04:48:43.896Z,14.40
2018-09-12T04:51:17.561Z,14.40
2018-09-12T04:53:52.037Z,14.30
2018-09-12T04:56:26.024Z,14.30
2018-09-12T04:58:59.479Z,14.30
2018-09-12T05:01:33.444Z,14.20
2018-09-12T05:04:07.197Z,14.30
2018-09-12T05:06:41.309Z,14.20
2018-09-12T05:09:15.599Z,14.20
2018-09-12T05:11:50.533Z,14.20
2018-09-12T05:14:26.133Z,14.20
2018-09-12T05:17:00.625Z,14.20
2018-09-12T05:22:18.535Z,14.10
2018-09-12T05:24:54.620Z,14.00
2018-09-12T05:27:28.372Z,14.00
2018-09-12T05:30:02.077Z,14.00
2018-09-12T05:32:39.860Z,14.00
2018-09-12T05:35:13.632Z,13.90
2018-09-12T05:37:50.037Z,13.90
2018-09-12T05:40:27.682Z,13.90
2018-09-12T05:43:07.230Z,13.90
2018-09-12T05:45:40.750Z,14.00
2018-09-12T05:48:15.292Z,14.00
2018-09-12T05:50:50.308Z,13.90
2018-09-12T05:53:25.443Z,13.90
2018-09-12T05:56:02.371Z,13.90
2018-09-12T05:58:37.323Z,14.00
2018-09-12T06:01:13.234Z,14.00
2018-09-12T06:03:47.784Z,14.00
2018-09-12T06:06:23.294Z,14.00
2018-09-12T06:08:57.009Z,14.00
2018-09-12T06:11:32.876Z,14.00
2018-09-12T06:14:08.309Z,14.00
2018-09-12T06:16:44.450Z,13.90
2018-09-12T06:19:29.414Z,13.90
2018-09-12T06:22:06.217Z,13.90
2018-09-12T06:24:42.992Z,13.90
2018-09-12T06:27:18.836Z,13.90
2018-09-12T06:29:54.080Z,13.90
2018-09-12T06:32:29.932Z,13.90
2018-09-12T06:35:03.350Z,13.90
2018-09-12T06:37:36.739Z,13.90
2018-09-12T06:40:17.188Z,14.00
2018-09-12T06:42:50.913Z,13.90
2018-09-12T06:45:24.745Z,13.90
2018-09-12T06:48:02.617Z,13.90
2018-09-12T06:50:36.552Z,13.90
2018-09-12T06:53:12.022Z,13.90
2018-09-12T06:55:45.470Z,13.90
2018-09-12T06:58:19.097Z,13.90
2018-09-12T07:00:53.319Z,13.90
2018-09-12T07:03:26.962Z,13.80
2018-09-12T07:06:03.230Z,13.90
2018-09-12T07:08:37.870Z,13.90
2018-09-12T07:11:12.828Z,13.90
2018-09-12T07:13:55.332Z,13.90
2018-09-12T07:16:29.478Z,13.90
2018-09-12T07:19:04.694Z,14.00
2018-09-12T07:21:38.554Z,14.00
2018-09-12T07:24:12.630Z,14.00
2018-09-12T07:26:48.833Z,14.00
2018-09-12T07:29:22.704Z,14.00
2018-09-12T07:32:01.157Z,14.00
2018-09-12T07:34:39.236Z,14.00
2018-09-12T07:37:13.474Z,14.00
2018-09-12T07:39:49.278Z,14.00
2018-09-12T07:42:23.468Z,14.00
2018-09-12T07:44:59.503Z,14.00
